createdAt,value
2022-09-04T00:00:56.742Z,25.04
2022-09-04T00:03:28.462Z,25.05
2022-09-04T00:05:56.337Z,25.10
2022-09-04T00:08:50.209Z,25.08
2022-09-04T00:11:27.164Z,25.04
2022-09-04T00:14:17.739Z,25.05
2022-09-04T00:16:55.218Z,25.05
2022-09-04T00:19:30.052Z,25.13
2022-09-04T00:22:00.921Z,25.16
2022-09-04T00:24:31.255Z,25.26
2022-09-04T00:27:16.962Z,25.23
2022-09-04T00:29:52.932Z,25.17
2022-09-04T00:32:39.049Z,25.19
2022-09-04T00:35:17.599Z,25.39
2022-09-04T00:37:56.903Z,25.30
2022-09-04T00:40:42.080Z,25.33
2022-09-04T00:43:25.939Z,25.35
2022-09-04T00:45:53.338Z,25.39
2022-09-04T00:48:39.279Z,25.44
2022-09-04T00:51:16.082Z,25.41
2022-09-04T00:54:02.001Z,25.49
2022-09-04T00:56:48.353Z,25.41
2022-09-04T00:59:21.659Z,25.43
2022-09-04T01:01:51.919Z,25.52
2022-09-04T01:04:34.058Z,25.45
2022-09-04T01:07:24.095Z,25.34
2022-09-04T01:10:00.857Z,25.38
2022-09-04T01:12:34.090Z,25.54
2022-09-04T01:15:19.573Z,25.62
2022-09-04T01:17:46.939Z,25.59
2022-09-04T01:20:32.301Z,25.66
2022-09-04T01:23:02.500Z,25.70
2022-09-04T01:25:37.932Z,25.78
2022-09-04T01:28:07.546Z,25.78
2022-09-04T01:30:37.874Z,25.79
2022-09-04T01:33:11.063Z,25.73
2022-09-04T01:35:53.097Z,25.84
2022-09-04T01:38:20.274Z,25.83
2022-09-04T01:40:54.375Z,25.54
2022-09-04T01:43:21.892Z,25.38
2022-09-04T01:46:07.931Z,25.47
2022-09-04T01:48:35.057Z,25.43
2022-09-04T01:51:04.147Z,25.46
2022-09-04T01:53:32.892Z,25.38
2022-09-04T01:56:10.960Z,25.51
2022-09-04T01:58:55.617Z,25.06
2022-09-04T02:01:29.266Z,25.07
2022-09-04T02:04:02.587Z,25.30
2022-09-04T02:06:44.956Z,25.40
2022-09-04T02:09:15.501Z,25.34
2022-09-04T02:11:48.751Z,25.17
2022-09-04T02:14:21.579Z,25.18
2022-09-04T02:17:08.725Z,24.56
2022-09-04T02:19:36.265Z,24.63
2022-09-04T02:22:07.550Z,25.04
2022-09-04T02:24:35.989Z,25.22
2022-09-04T02:27:22.240Z,25.27
2022-09-04T02:29:52.149Z,25.29
2022-09-04T02:32:21.082Z,24.31
2022-09-04T02:34:56.002Z,24.14
2022-09-04T02:37:35.762Z,23.56
2022-09-04T02:40:11.901Z,24.46
2022-09-04T02:42:39.955Z,23.95
2022-09-04T02:45:16.084Z,24.40
2022-09-04T02:47:49.590Z,24.71
2022-09-04T02:50:38.413Z,24.47
2022-09-04T02:53:18.400Z,24.14
2022-09-04T02:55:53.085Z,24.51
2022-09-04T02:58:30.068Z,24.60
2022-09-04T03:01:05.299Z,24.11
2022-09-04T03:03:35.849Z,23.14
2022-09-04T03:06:09.597Z,22.99
2022-09-04T03:08:41.737Z,23.73
2022-09-04T03:11:26.448Z,24.12
2022-09-04T03:14:14.020Z,24.34
2022-09-04T03:16:42.716Z,23.84
2022-09-04T03:19:29.153Z,24.31
2022-09-04T03:21:56.203Z,24.66
2022-09-04T03:24:26.746Z,24.00
2022-09-04T03:26:58.338Z,24.35
2022-09-04T03:29:45.981Z,24.35
2022-09-04T03:32:29.488Z,24.57
2022-09-04T03:35:23.688Z,24.74
2022-09-04T03:38:12.605Z,24.93
2022-09-04T03:40:46.197Z,24.83
2022-09-04T03:43:32.018Z,24.38
2022-09-04T03:46:05.374Z,23.84
2022-09-04T03:48:32.460Z,24.33
2022-09-04T03:51:15.850Z,24.63
2022-09-04T03:53:44.123Z,24.69
2022-09-04T03:56:12.283Z,24.23
2022-09-04T03:58:42.341Z,23.79
2022-09-04T04:01:13.160Z,23.96
2022-09-04T04:03:43.709Z,22.93
2022-09-04T04:06:34.118Z,23.65
2022-09-04T04:09:11.895Z,23.97
2022-09-04T04:11:43.674Z,23.15
2022-09-04T04:14:17.332Z,22.59
2022-09-04T04:16:55.784Z,22.92
2022-09-04T04:19:42.704Z,22.70
2022-09-04T04:22:39.424Z,23.14
2022-09-04T04:25:06.843Z,22.00
2022-09-04T04:27:49.088Z,20.53
2022-09-04T04:30:17.041Z,21.77
2022-09-04T04:32:53.923Z,22.55
2022-09-04T04:35:28.715Z,21.63
2022-09-04T04:37:56.235Z,21.55
2022-09-04T04:40:26.447Z,21.40
2022-09-04T04:43:08.559Z,21.16
2022-09-04T04:45:50.396Z,21.74
2022-09-04T04:48:37.056Z,21.66
2022-09-04T04:51:07.652Z,21.22
2022-09-04T04:53:49.905Z,20.84
2022-09-04T04:56:32.096Z,20.69
2022-09-04T04:59:23.388Z,21.64
2022-09-04T05:01:56.243Z,21.69
2022-09-04T05:04:36.207Z,21.49
2022-09-04T05:07:07.349Z,21.43
2022-09-04T05:09:36.396Z,21.07
2022-09-04T05:12:22.627Z,20.82
2022-09-04T05:14:52.910Z,21.16
2022-09-04T05:17:40.947Z,20.28
2022-09-04T05:20:25.487Z,20.77
2022-09-04T05:23:02.088Z,20.87
2022-09-04T05:25:36.384Z,21.54
2022-09-04T05:28:27.209Z,22.43
2022-09-04T05:31:13.307Z,23.01
2022-09-04T05:33:58.565Z,22.16
2022-09-04T05:36:44.123Z,21.24
2022-09-04T05:39:11.519Z,20.81
2022-09-04T05:41:40.413Z,21.23
2022-09-04T05:44:37.167Z,21.21
2022-09-04T05:47:28.554Z,21.96
2022-09-04T05:50:21.309Z,21.26
2022-09-04T05:53:01.925Z,21.04
2022-09-04T05:55:32.197Z,21.78
2022-09-04T05:58:13.332Z,22.01
2022-09-04T06:00:46.553Z,21.40
2022-09-04T06:03:33.910Z,22.16
2022-09-04T06:06:04.171Z,21.56
2022-09-04T06:08:51.817Z,21.33
2022-09-04T06:11:33.563Z,21.28
2022-09-04T06:14:06.936Z,21.10
2022-09-04T06:16:34.022Z,21.62
2022-09-04T06:19:16.480Z,21.26
2022-09-04T06:21:56.262Z,20.79
2022-09-04T06:24:36.140Z,20.29
2022-09-04T06:27:06.961Z,21.25
2022-09-04T06:30:03.792Z,22.01
2022-09-04T06:32:31.118Z,22.49
2022-09-04T06:35:10.348Z,22.64
2022-09-04T06:37:38.361Z,23.18
2022-09-04T06:40:09.083Z,21.90
2022-09-04T06:42:55.275Z,21.36
2022-09-04T06:45:25.859Z,21.83
2022-09-04T06:48:11.970Z,22.22
2022-09-04T06:50:42.887Z,22.78
2022-09-04T06:53:16.298Z,21.51
2022-09-04T06:56:03.107Z,22.35
2022-09-04T06:58:30.183Z,21.64
2022-09-04T07:01:00.717Z,21.24
2022-09-04T07:03:30.844Z,20.77
2022-09-04T07:06:04.833Z,21.96
2022-09-04T07:08:50.433Z,21.42
2022-09-04T07:11:17.782Z,21.01
2022-09-04T07:14:00.703Z,22.19
2022-09-04T07:16:40.381Z,21.24
2022-09-04T07:19:07.987Z,21.73
2022-09-04T07:21:42.759Z,21.35
2022-09-04T07:24:09.885Z,22.24
2022-09-04T07:26:39.411Z,21.64
2022-09-04T07:29:09.606Z,22.09
2022-09-04T07:31:42.181Z,21.06
2022-09-04T07:34:19.234Z,21.14
2022-09-04T07:36:46.634Z,21.42
2022-09-04T07:39:16.492Z,21.68
2022-09-04T07:41:55.778Z,21.34
2022-09-04T07:44:44.722Z,21.71
2022-09-04T07:47:14.831Z,22.12
2022-09-04T07:50:01.136Z,21.53
2022-09-04T07:52:31.179Z,21.75
2022-09-04T07:55:08.742Z,21.45
2022-09-04T07:57:54.828Z,21.80
2022-09-04T08:00:22.855Z,22.21
2022-09-04T08:03:01.519Z,22.63
2022-09-04T08:05:44.509Z,23.37
2022-09-04T08:08:31.977Z,23.50
2022-09-04T08:11:05.058Z,23.08
2022-09-04T08:13:38.583Z,22.75
2022-09-04T08:16:07.399Z,23.15
2022-09-04T08:18:35.504Z,23.48
2022-09-04T08:21:02.629Z,24.23
2022-09-04T08:23:29.719Z,22.58
2022-09-04T08:26:14.293Z,23.36
2022-09-04T08:28:57.044Z,24.41
2022-09-04T08:31:43.373Z,25.10
2022-09-04T08:34:10.563Z,24.87
2022-09-04T08:36:37.927Z,25.43
2022-09-04T08:39:09.857Z,25.20
2022-09-04T08:41:43.062Z,25.36
2022-09-04T08:44:22.897Z,25.54
2022-09-04T08:46:55.135Z,25.77
2022-09-04T08:49:28.535Z,25.58
2022-09-04T08:52:15.082Z,25.54
2022-09-04T08:54:48.576Z,25.92
2022-09-04T08:57:31.250Z,25.39
2022-09-04T09:00:15.236Z,24.55
2022-09-04T09:03:01.170Z,25.39
2022-09-04T09:05:28.546Z,25.00
2022-09-04T09:07:55.664Z,24.97
2022-09-04T09:10:28.707Z,25.22
2022-09-04T09:12:56.148Z,25.84
2022-09-04T09:15:30.138Z,25.31
2022-09-04T09:18:17.958Z,24.91
2022-09-04T09:20:46.823Z,25.17
2022-09-04T09:23:18.712Z,24.68
2022-09-04T09:25:49.742Z,24.86
2022-09-04T09:28:29.463Z,25.45
2022-09-04T09:31:12.365Z,25.18
2022-09-04T09:33:58.428Z,25.52
2022-09-04T09:36:44.418Z,25.55
2022-09-04T09:39:17.582Z,25.38
2022-09-04T09:42:03.629Z,25.65
2022-09-04T09:44:42.536Z,24.96
2022-09-04T09:47:20.581Z,25.60
2022-09-04T09:50:03.265Z,24.12
2022-09-04T09:52:42.563Z,24.73
2022-09-04T09:55:09.945Z,24.93
2022-09-04T09:57:55.805Z,25.91
2022-09-04T10:00:25.701Z,26.25
2022-09-04T10:02:53.033Z,26.09
2022-09-04T10:05:39.173Z,26.50
2022-09-04T10:08:12.402Z,26.51
2022-09-04T10:10:40.508Z,26.19
2022-09-04T10:13:08.754Z,25.61
2022-09-04T10:15:41.916Z,24.70
2022-09-04T10:18:18.595Z,24.94
2022-09-04T10:21:12.367Z,24.81
2022-09-04T10:23:47.781Z,25.14
2022-09-04T10:26:18.062Z,25.47
2022-09-04T10:29:05.270Z,25.02
2022-09-04T10:31:38.431Z,25.79
2022-09-04T10:34:24.592Z,25.81
2022-09-04T10:37:18.187Z,25.81
2022-09-04T10:40:09.794Z,26.47
2022-09-04T10:42:40.963Z,26.63
2022-09-04T10:45:21.175Z,26.86
2022-09-04T10:48:07.371Z,26.89
2022-09-04T10:50:56.360Z,26.97
2022-09-04T10:53:42.346Z,26.89
2022-09-04T10:56:35.282Z,26.91
2022-09-04T10:59:13.102Z,26.80
2022-09-04T11:01:59.440Z,26.85
2022-09-04T11:04:29.763Z,26.94
2022-09-04T11:07:03.164Z,26.87
2022-09-04T11:09:36.743Z,26.65
2022-09-04T11:12:12.763Z,26.76
2022-09-04T11:14:49.877Z,27.07
2022-09-04T11:17:30.593Z,26.81
2022-09-04T11:20:18.556Z,26.86
2022-09-04T11:23:05.185Z,27.04
2022-09-04T11:25:52.201Z,26.78
2022-09-04T11:28:40.444Z,26.78
2022-09-04T11:31:07.969Z,26.57
2022-09-04T11:33:45.009Z,25.53
2022-09-04T11:36:19.006Z,25.77
2022-09-04T11:39:01.546Z,26.32
2022-09-04T11:41:31.751Z,26.09
2022-09-04T11:44:17.818Z,26.89
2022-09-04T11:46:51.011Z,27.07
2022-09-04T11:49:18.384Z,26.29
2022-09-04T11:52:03.953Z,26.49
2022-09-04T11:54:36.529Z,26.52
2022-09-04T11:57:23.546Z,26.77
2022-09-04T11:59:50.904Z,27.00
2022-09-04T12:02:25.917Z,26.61
2022-09-04T12:04:56.319Z,27.22
2022-09-04T12:07:43.505Z,26.99
2022-09-04T12:10:21.782Z,26.96
2022-09-04T12:12:52.977Z,27.54
2022-09-04T12:15:23.567Z,27.32
2022-09-04T12:17:51.652Z,26.93
2022-09-04T12:20:24.173Z,26.79
2022-09-04T12:23:02.662Z,26.74
2022-09-04T12:25:39.057Z,26.74
2022-09-04T12:28:09.555Z,27.05
2022-09-04T12:30:39.647Z,27.34
2022-09-04T12:33:33.523Z,27.45
2022-09-04T12:36:17.549Z,27.55
2022-09-04T12:38:47.350Z,27.96
2022-09-04T12:41:21.644Z,27.48
2022-09-04T12:44:08.696Z,28.09
2022-09-04T12:46:50.276Z,25.95
2022-09-04T12:49:58.170Z,27.00
2022-09-04T12:52:32.207Z,27.44
2022-09-04T12:55:05.298Z,27.77
2022-09-04T12:57:33.813Z,27.80
2022-09-04T13:00:08.279Z,27.59
2022-09-04T13:02:35.824Z,27.17
2022-09-04T13:05:12.506Z,26.89
2022-09-04T13:07:56.135Z,28.20
2022-09-04T13:10:23.571Z,28.07
2022-09-04T13:12:59.812Z,27.55
2022-09-04T13:15:47.971Z,28.18
2022-09-04T13:18:24.626Z,28.54
2022-09-04T13:21:05.554Z,28.42
2022-09-04T13:23:38.932Z,28.51
2022-09-04T13:26:24.014Z,28.90
2022-09-04T13:29:08.516Z,28.57
2022-09-04T13:31:40.936Z,28.88
2022-09-04T13:34:11.009Z,28.65
2022-09-04T13:36:40.558Z,28.59
2022-09-04T13:39:07.863Z,27.82
2022-09-04T13:41:37.800Z,26.58
2022-09-04T13:44:08.100Z,28.16
2022-09-04T13:46:37.103Z,28.71
2022-09-04T13:49:10.945Z,28.27
2022-09-04T13:51:40.421Z,28.00
2022-09-04T13:54:37.460Z,28.46
2022-09-04T13:57:04.892Z,28.86
2022-09-04T13:59:34.308Z,28.47
2022-09-04T14:02:02.419Z,28.26
2022-09-04T14:04:37.961Z,27.41
2022-09-04T14:07:10.820Z,27.85
2022-09-04T14:09:41.528Z,28.12
2022-09-04T14:12:19.127Z,28.40
2022-09-04T14:15:08.725Z,28.13
2022-09-04T14:17:41.540Z,28.73
2022-09-04T14:20:12.886Z,28.61
2022-09-04T14:22:55.048Z,28.63
2022-09-04T14:25:28.590Z,28.97
2022-09-04T14:28:03.488Z,28.36
2022-09-04T14:30:34.856Z,27.60
2022-09-04T14:33:07.317Z,27.87
2022-09-04T14:35:36.903Z,28.06
2022-09-04T14:38:24.194Z,27.84
2022-09-04T14:41:01.969Z,28.09
2022-09-04T14:43:47.622Z,28.34
2022-09-04T14:46:19.013Z,28.04
2022-09-04T14:48:47.058Z,28.71
2022-09-04T14:51:15.493Z,29.10
2022-09-04T14:53:55.339Z,28.96
2022-09-04T14:56:42.070Z,29.06
2022-09-04T14:59:14.141Z,29.31
2022-09-04T15:02:00.088Z,29.67
2022-09-04T15:04:32.516Z,29.37
2022-09-04T15:07:21.595Z,29.42
2022-09-04T15:09:49.070Z,29.73
2022-09-04T15:12:25.038Z,29.35
2022-09-04T15:14:54.995Z,28.83
2022-09-04T15:17:28.328Z,28.41
2022-09-04T15:19:55.562Z,28.54
2022-09-04T15:22:37.051Z,27.76
2022-09-04T15:25:48.047Z,28.12
2022-09-04T15:28:19.910Z,27.81
2022-09-04T15:30:57.806Z,28.48
2022-09-04T15:33:25.377Z,28.32
2022-09-04T15:36:15.208Z,29.06
2022-09-04T15:38:46.400Z,29.03
2022-09-04T15:41:18.947Z,28.89
2022-09-04T15:43:55.588Z,28.98
2022-09-04T15:46:22.733Z,28.85
2022-09-04T15:48:54.127Z,28.72
2022-09-04T15:51:47.525Z,29.00
2022-09-04T15:54:33.721Z,28.90
2022-09-04T15:57:01.977Z,29.24
2022-09-04T15:59:29.406Z,27.70
2022-09-04T16:02:15.501Z,29.09
2022-09-04T16:04:49.556Z,29.65
2022-09-04T16:07:34.193Z,29.38
2022-09-04T16:10:04.019Z,28.73
2022-09-04T16:12:54.401Z,29.22
2022-09-04T16:15:27.754Z,29.41
2022-09-04T16:17:55.257Z,29.16
2022-09-04T16:20:22.659Z,29.15
2022-09-04T16:22:54.235Z,27.85
2022-09-04T16:25:31.758Z,28.45
2022-09-04T16:28:06.059Z,29.12
2022-09-04T16:30:43.402Z,29.02
2022-09-04T16:33:28.057Z,28.43
2022-09-04T16:35:59.435Z,29.20
2022-09-04T16:38:30.045Z,28.53
2022-09-04T16:41:01.613Z,28.75
2022-09-04T16:43:34.125Z,29.22
2022-09-04T16:46:01.298Z,29.29
2022-09-04T16:48:34.389Z,29.23
2022-09-04T16:51:23.506Z,29.37
2022-09-04T16:54:13.428Z,29.42
2022-09-04T16:56:42.853Z,29.21
2022-09-04T16:59:10.244Z,29.34
2022-09-04T17:01:49.347Z,28.91
2022-09-04T17:04:39.585Z,29.00
2022-09-04T17:07:07.804Z,28.62
2022-09-04T17:10:10.616Z,29.00
2022-09-04T17:12:37.954Z,29.06
2022-09-04T17:15:05.344Z,28.82
2022-09-04T17:17:35.471Z,28.73
2022-09-04T17:20:06.835Z,28.76
2022-09-04T17:28:59.142Z,28.73
2022-09-04T17:29:07.542Z,28.53
2022-09-04T17:29:18.361Z,28.51
2022-09-04T17:31:19.507Z,28.30
2022-09-04T17:39:30.255Z,28.22
2022-09-04T17:40:40.415Z,28.24
2022-09-04T17:40:44.479Z,28.10
2022-09-04T17:42:40.797Z,27.99
2022-09-04T17:45:27.973Z,27.91
2022-09-04T17:48:04.479Z,27.78
2022-09-04T17:50:32.077Z,27.67
2022-09-04T17:53:03.311Z,27.62
2022-09-04T17:55:39.064Z,27.55
2022-09-04T17:58:53.477Z,27.50
2022-09-04T18:01:33.814Z,27.59
2022-09-04T18:04:20.439Z,27.59
2022-09-04T18:06:51.402Z,27.49
2022-09-04T18:09:26.714Z,27.63
2022-09-04T18:12:00.979Z,27.56
2022-09-04T18:14:32.193Z,27.29
2022-09-04T18:17:11.778Z,27.62
2022-09-04T18:19:40.611Z,27.44
2022-09-04T18:22:25.483Z,27.38
2022-09-04T18:24:59.797Z,27.48
2022-09-04T18:27:44.914Z,27.59
2022-09-04T18:37:05.321Z,27.37
2022-09-04T18:37:07.475Z,27.28
2022-09-04T18:37:18.210Z,27.26
2022-09-04T18:39:08.909Z,27.34
2022-09-04T18:49:25.136Z,27.19
2022-09-04T18:50:24.637Z,27.28
2022-09-04T18:50:29.499Z,27.39
2022-09-04T18:53:34.810Z,27.62
2022-09-04T18:56:03.509Z,27.59
2022-09-04T18:58:52.096Z,27.49
2022-09-04T19:01:27.059Z,27.52
2022-09-04T19:04:18.501Z,27.55
2022-09-04T19:06:47.131Z,27.56
2022-09-04T19:09:15.604Z,27.60
2022-09-04T19:11:47.808Z,27.66
2022-09-04T19:14:16.152Z,27.68
2022-09-04T19:16:57.466Z,27.71
2022-09-04T19:19:37.377Z,27.58
2022-09-04T19:22:11.335Z,27.56
2022-09-04T19:24:50.277Z,27.57
2022-09-04T19:27:26.790Z,27.51
2022-09-04T19:30:18.161Z,27.61
2022-09-04T19:32:49.784Z,27.66
2022-09-04T19:35:22.154Z,27.54
2022-09-04T19:44:10.175Z,27.55
2022-09-04T19:46:00.358Z,27.56
2022-09-04T19:46:02.489Z,27.33
2022-09-04T19:46:45.415Z,27.35
2022-09-04T19:51:01.984Z,27.35
2022-09-04T19:53:34.342Z,27.29
2022-09-04T19:55:23.642Z,27.30
2022-09-04T19:57:47.599Z,27.33
2022-09-04T20:00:33.697Z,27.31
2022-09-04T20:03:07.397Z,27.31
2022-09-04T20:05:35.189Z,27.36
2022-09-04T20:08:16.797Z,27.34
2022-09-04T20:10:49.924Z,27.32
2022-09-04T20:13:32.608Z,27.27
2022-09-04T20:16:03.032Z,27.20
2022-09-04T20:18:31.229Z,27.30
2022-09-04T20:21:04.298Z,27.11
2022-09-04T20:23:43.312Z,27.09
2022-09-04T20:26:42.881Z,27.07
2022-09-04T20:29:20.742Z,27.15
2022-09-04T20:31:49.439Z,27.33
2022-09-04T20:34:16.974Z,27.32
2022-09-04T20:36:49.158Z,27.23
2022-09-04T20:39:37.123Z,27.19
2022-09-04T20:42:13.264Z,27.16
2022-09-04T20:44:55.259Z,27.13
2022-09-04T20:52:41.636Z,27.15
2022-09-04T20:53:05.303Z,27.08
2022-09-04T20:53:23.661Z,27.10
2022-09-04T20:56:01.022Z,27.06
2022-09-04T21:03:06.440Z,27.02
2022-09-04T21:03:23.113Z,27.05
2022-09-04T21:04:55.576Z,27.02
2022-09-04T21:07:27.015Z,26.91
2022-09-04T21:09:57.021Z,26.86
2022-09-04T21:12:30.185Z,26.91
2022-09-04T21:15:17.549Z,26.85
2022-09-04T21:17:55.094Z,26.81
2022-09-04T21:20:34.658Z,26.75
2022-09-04T21:23:40.850Z,26.66
2022-09-04T21:26:22.638Z,26.65
2022-09-04T21:28:55.997Z,26.62
2022-09-04T21:31:51.738Z,26.70
2022-09-04T21:34:31.722Z,26.68
2022-09-04T21:37:01.979Z,26.61
2022-09-04T21:39:44.585Z,26.54
2022-09-04T21:42:27.146Z,26.45
2022-09-04T21:44:54.512Z,26.52
2022-09-04T21:47:24.687Z,26.52
2022-09-04T21:50:07.726Z,26.41
2022-09-04T21:52:41.065Z,26.36
2022-09-04T21:58:49.223Z,26.40
2022-09-04T22:02:30.999Z,26.36
2022-09-04T22:02:40.284Z,26.38
2022-09-04T22:04:35.536Z,26.31
2022-09-04T22:13:16.123Z,26.27
2022-09-04T22:13:29.417Z,26.25
2022-09-04T22:13:39.968Z,26.17
2022-09-04T22:15:58.386Z,26.02
2022-09-04T22:18:34.841Z,26.01
2022-09-04T22:21:06.947Z,25.65
2022-09-04T22:23:34.151Z,25.50
2022-09-04T22:26:23.638Z,25.49
2022-09-04T22:29:04.988Z,25.58
2022-09-04T22:31:51.256Z,25.09
2022-09-04T22:34:18.341Z,25.24
2022-09-04T22:37:01.534Z,25.75
2022-09-04T22:39:45.027Z,25.84
2022-09-04T22:42:21.501Z,25.68
2022-09-04T22:44:54.430Z,25.78
2022-09-04T22:47:29.966Z,25.89
2022-09-04T22:49:57.461Z,25.78
2022-09-04T22:52:28.382Z,25.78
2022-09-04T22:55:38.900Z,25.82
2022-09-04T22:58:29.948Z,25.77
2022-09-04T23:01:12.450Z,25.75
2022-09-04T23:03:39.715Z,25.72
2022-09-04T23:07:30.988Z,25.68
2022-09-04T23:13:43.265Z,25.67
2022-09-04T23:14:00.191Z,25.76
2022-09-04T23:14:56.253Z,25.79
2022-09-04T23:18:49.704Z,25.65
2022-09-04T23:26:36.493Z,25.63
2022-09-04T23:26:53.587Z,25.56
2022-09-04T23:27:20.313Z,25.55
2022-09-04T23:30:05.655Z,25.42
2022-09-04T23:32:32.848Z,25.42
2022-09-04T23:35:15.117Z,25.41
2022-09-04T23:37:46.200Z,25.38
2022-09-04T23:40:29.254Z,25.52
2022-09-04T23:43:00.445Z,25.51
2022-09-04T23:45:32.139Z,25.47
2022-09-04T23:48:05.543Z,25.33
2022-09-04T23:50:32.941Z,25.38
2022-09-04T23:53:00.127Z,25.39
2022-09-04T23:55:48.609Z,25.37
2022-09-04T23:59:12.724Z,25.31
